Portada
METAR-TAF:

METAR-TAF

Aeropuertos :

Aeropuerto Internacional Rey Mswati III

Manzini, Suazilandia

latitud: 26-21-24S, longitud: 031-43-01E, altitud: 324 m

Observación

El informe se hizo hace 15 horas y 40 minutos, a las 14:00 UTC
Viento 6 kt del sureste
Temperatura 20°C
Humedad 24%
Presión 1018 hPa
Visibilidad 10 km o más
sin nubes por debajo de 1500 m y sin presencia de cumulonimbus.

METAR: FDSK 271400Z 14006KT CAVOK 20/M01 Q1018 NOSIG

Hora: 07:40 (05:40 UTC)

Pronóstico

El informe se hizo hace 19 horas y 40 minutos, a las 10:00 UTC
Pronóstico válido del 27 a las 12 UTC al 27 a las 18 UTC
Viento 14 kt del sur
Visibilidad 10 km o más
sin nubes por debajo de 1500 m y sin presencia de cumulonimbus.

TAF: FDSK 271000Z 2712/2718 17014KT CAVOK

Observaciones y pronósticos meteorológicos de más de 4000 aeropuertos (mensajes METAR y TAF).

Los puntos amarillos y rojos representan las estaciones disponibles.

Ponga el ratón en el punto deseado para ver el nombre de la estación.

Haga clic para ver las observaciones y los pronósticos meteorológicos.

Para cambiar el mapa : haga clic en los botones verdes con una cruz de color negro para hacer un zoom, en el botón verde con un guión para alejar o en las flechas verdes para mapas adyacentes.


METAR-TAF: